Time;durP1;ratioP1;P1;durP2;ratioP2;P2;SDS_P1;SDS_P2;PMS_P1;PMS_P2;Temp;Humidity;BMP_temperature;BMP_pressure;BME280_temperature;BME280_humidity;BME280_pressure;Samples;Min_cycle;Max_cycle;Signal;HPM_P1;HPM_P2
2023/04/06 00:01:10;;;;;;;5.17;4.30;;;;;;;;;;5007097;28;20189;-51
2023/04/06 00:03:37;;;;;;;5.20;3.80;;;;;;;;;;5008003;28;20249;-50
2023/04/06 00:06:03;;;;;;;3.70;3.23;;;;;;;;;;5004735;28;20182;-50
2023/04/06 00:08:29;;;;;;;5.80;3.90;;;;;;;;;;5006917;28;20197;-51
2023/04/06 00:10:55;;;;;;;5.57;4.20;;;;;;;;;;5007490;28;20214;-51
2023/04/06 00:13:21;;;;;;;5.87;4.30;;;;;;;;;;5004068;28;20796;-50
2023/04/06 00:15:48;;;;;;;4.33;3.50;;;;;;;;;;5008628;28;20211;-50
2023/04/06 00:18:14;;;;;;;5.50;4.37;;;;;;;;;;5007270;28;20182;-51
2023/04/06 00:20:40;;;;;;;4.87;3.67;;;;;;;;;;5007335;28;20222;-51
2023/04/06 00:23:06;;;;;;;4.00;3.30;;;;;;;;;;5006611;28;20216;-51
2023/04/06 00:25:32;;;;;;;4.53;3.80;;;;;;;;;;5006367;28;20281;-51
2023/04/06 00:27:58;;;;;;;3.77;3.37;;;;;;;;;;5005809;28;20260;-51
2023/04/06 00:30:24;;;;;;;5.80;3.83;;;;;;;;;;5007578;28;20179;-51
2023/04/06 00:32:51;;;;;;;3.77;3.47;;;;;;;;;;5007813;28;20182;-51
2023/04/06 00:35:17;;;;;;;4.47;3.90;;;;;;;;;;5006557;28;20202;-51
2023/04/06 00:37:43;;;;;;;4.50;3.77;;;;;;;;;;5007774;28;20552;-50
2023/04/06 00:40:09;;;;;;;3.90;3.50;;;;;;;;;;5004921;28;20564;-51
2023/04/06 00:42:36;;;;;;;5.50;4.37;;;;;;;;;;5008195;28;20626;-50
2023/04/06 00:45:02;;;;;;;3.83;3.50;;;;;;;;;;5006843;28;20539;-51
2023/04/06 00:47:28;;;;;;;5.50;3.37;;;;;;;;;;5005664;28;20491;-51
2023/04/06 00:49:55;;;;;;;4.33;3.67;;;;;;;;;;5007458;28;20183;-51
2023/04/06 00:52:21;;;;;;;3.50;3.17;;;;;;;;;;5003880;28;20187;-50
2023/04/06 00:54:47;;;;;;;4.13;3.47;;;;;;;;;;5005324;28;20750;-51
2023/04/06 00:57:14;;;;;;;3.80;3.40;;;;;;;;;;5006557;28;20185;-51
2023/04/06 00:59:40;;;;;;;3.40;3.10;;;;;;;;;;5005777;28;20570;-50
2023/04/06 01:02:07;;;;;;;4.43;3.53;;;;;;;;;;5006187;28;20808;-50
2023/04/06 01:04:33;;;;;;;3.70;3.30;;;;;;;;;;5015790;28;20179;-51
2023/04/06 01:06:59;;;;;;;5.33;4.37;;;;;;;;;;5006841;28;20182;-51
2023/04/06 01:09:26;;;;;;;4.27;3.87;;;;;;;;;;5003749;28;20187;-51
2023/04/06 01:11:52;;;;;;;4.17;3.40;;;;;;;;;;5005453;28;20206;-50
2023/04/06 01:14:18;;;;;;;3.90;3.50;;;;;;;;;;5013130;28;20191;-51
2023/04/06 01:16:44;;;;;;;3.60;3.30;;;;;;;;;;5006349;28;20182;-51
2023/04/06 01:19:11;;;;;;;5.23;3.90;;;;;;;;;;5005685;28;20464;-50
2023/04/06 01:21:38;;;;;;;3.73;3.07;;;;;;;;;;5005961;28;20321;-51
2023/04/06 01:24:04;;;;;;;4.43;3.60;;;;;;;;;;5003477;28;20198;-51
2023/04/06 01:26:30;;;;;;;4.30;3.90;;;;;;;;;;5005110;28;20178;-50
2023/04/06 01:28:56;;;;;;;4.87;3.90;;;;;;;;;;5000255;28;20185;-51
2023/04/06 01:31:23;;;;;;;6.33;3.60;;;;;;;;;;5005330;28;20325;-51
2023/04/06 01:33:50;;;;;;;4.10;3.70;;;;;;;;;;5004702;28;20198;-51
2023/04/06 01:36:16;;;;;;;4.03;3.63;;;;;;;;;;5004125;28;20195;-50
2023/04/06 01:38:42;;;;;;;4.00;3.23;;;;;;;;;;5002277;28;20190;-51
2023/04/06 01:41:08;;;;;;;5.77;3.73;;;;;;;;;;5005743;28;20197;-51
2023/04/06 01:43:35;;;;;;;4.47;3.73;;;;;;;;;;5005561;28;20191;-51
2023/04/06 01:46:01;;;;;;;4.47;3.47;;;;;;;;;;5005397;28;20270;-51
2023/04/06 01:48:27;;;;;;;4.63;4.03;;;;;;;;;;5000375;28;20700;-50
2023/04/06 01:50:54;;;;;;;3.77;3.33;;;;;;;;;;5002635;28;20182;-50
2023/04/06 01:53:20;;;;;;;4.70;3.73;;;;;;;;;;5004411;28;20194;-51
2023/04/06 01:55:46;;;;;;;3.97;3.57;;;;;;;;;;5005966;28;20199;-50
2023/04/06 01:58:13;;;;;;;4.57;3.53;;;;;;;;;;5005379;28;20701;-50
2023/04/06 02:00:39;;;;;;;4.33;3.80;;;;;;;;;;5005986;28;20179;-50
2023/04/06 02:03:05;;;;;;;4.33;3.53;;;;;;;;;;5004048;28;20189;-50
2023/04/06 02:05:37;;;;;;;3.47;3.13;;;;;;;;;;5004749;28;20179;-51
2023/04/06 02:08:03;;;;;;;4.10;3.50;;;;;;;;;;5007552;28;20712;-53
2023/04/06 02:10:29;;;;;;;5.60;3.47;;;;;;;;;;4998840;28;20710;-51
2023/04/06 02:12:55;;;;;;;4.10;3.50;;;;;;;;;;5006070;28;20206;-51
2023/04/06 02:15:21;;;;;;;5.00;3.60;;;;;;;;;;5004177;28;20616;-51
2023/04/06 02:17:47;;;;;;;4.73;3.53;;;;;;;;;;5006144;28;20182;-51
2023/04/06 02:20:14;;;;;;;7.30;4.37;;;;;;;;;;5004568;28;20265;-50
2023/04/06 02:22:40;;;;;;;4.40;4.00;;;;;;;;;;5005508;28;20566;-50
2023/04/06 02:25:06;;;;;;;3.93;3.50;;;;;;;;;;5002346;28;20186;-51
2023/04/06 02:27:32;;;;;;;4.40;3.87;;;;;;;;;;5006110;28;20237;-50
2023/04/06 02:29:59;;;;;;;5.83;3.93;;;;;;;;;;5001118;28;20182;-50
2023/04/06 02:32:25;;;;;;;5.43;3.73;;;;;;;;;;5005082;28;20175;-50
2023/04/06 02:34:51;;;;;;;4.57;3.70;;;;;;;;;;5005729;28;20281;-50
2023/04/06 02:37:17;;;;;;;4.80;4.10;;;;;;;;;;5004463;28;20918;-50
2023/04/06 02:39:43;;;;;;;4.57;4.17;;;;;;;;;;5004021;28;20182;-51
2023/04/06 02:42:09;;;;;;;4.60;4.00;;;;;;;;;;5005759;28;20717;-50
2023/04/06 02:44:35;;;;;;;4.87;3.63;;;;;;;;;;5005039;28;20182;-50
2023/04/06 02:47:01;;;;;;;4.57;3.97;;;;;;;;;;5005976;28;20197;-51
2023/04/06 02:49:27;;;;;;;4.17;3.77;;;;;;;;;;5009735;28;20182;-51
2023/04/06 02:51:53;;;;;;;5.43;3.77;;;;;;;;;;5009712;28;20642;-50
2023/04/06 02:54:20;;;;;;;4.63;3.77;;;;;;;;;;5006856;28;20673;-50
2023/04/06 02:56:46;;;;;;;6.50;4.47;;;;;;;;;;5004107;28;20186;-50
2023/04/06 02:59:12;;;;;;;4.73;4.03;;;;;;;;;;5007797;28;20179;-50
2023/04/06 03:01:38;;;;;;;5.50;4.07;;;;;;;;;;5008389;28;20681;-50
2023/04/06 03:04:04;;;;;;;4.73;3.93;;;;;;;;;;5008121;28;20630;-49
2023/04/06 03:06:30;;;;;;;4.30;3.73;;;;;;;;;;5009082;28;20630;-50
2023/04/06 03:08:56;;;;;;;5.33;4.00;;;;;;;;;;5007712;28;20286;-50
2023/04/06 03:11:22;;;;;;;4.97;3.90;;;;;;;;;;5008765;28;20772;-51
2023/04/06 03:13:48;;;;;;;3.97;3.40;;;;;;;;;;5006997;28;20525;-50
2023/04/06 03:16:14;;;;;;;6.20;4.37;;;;;;;;;;5007935;28;20206;-50
2023/04/06 03:18:40;;;;;;;5.30;4.07;;;;;;;;;;5008704;28;20187;-50
2023/04/06 03:21:06;;;;;;;5.63;4.17;;;;;;;;;;5007729;28;20710;-50
2023/04/06 03:23:32;;;;;;;5.40;4.50;;;;;;;;;;5006276;28;20650;-50
2023/04/06 03:25:59;;;;;;;5.03;4.50;;;;;;;;;;5009888;28;20646;-50
2023/04/06 03:28:25;;;;;;;4.70;4.20;;;;;;;;;;5008648;28;20591;-50
2023/04/06 03:30:51;;;;;;;4.57;3.97;;;;;;;;;;5008870;28;20181;-50
2023/04/06 03:33:17;;;;;;;5.83;5.33;;;;;;;;;;5007262;28;21286;-50
2023/04/06 03:35:43;;;;;;;4.43;3.83;;;;;;;;;;5009771;28;20265;-54
2023/04/06 03:38:09;;;;;;;6.97;4.47;;;;;;;;;;5007871;28;20182;-53
2023/04/06 03:40:35;;;;;;;4.90;4.40;;;;;;;;;;5007579;28;20175;-54
2023/04/06 03:43:02;;;;;;;6.60;4.93;;;;;;;;;;5008085;28;20244;-53
2023/04/06 03:45:28;;;;;;;4.03;3.60;;;;;;;;;;5002921;28;20178;-56
2023/04/06 03:47:54;;;;;;;5.17;4.37;;;;;;;;;;5008733;28;20182;-52
2023/04/06 03:50:20;;;;;;;5.43;4.57;;;;;;;;;;5006693;28;20194;-52
2023/04/06 03:52:46;;;;;;;4.50;3.70;;;;;;;;;;5007938;28;20183;-53
2023/04/06 03:55:12;;;;;;;4.50;4.10;;;;;;;;;;5004864;28;20245;-52
2023/04/06 03:57:38;;;;;;;5.03;4.63;;;;;;;;;;5008419;28;20190;-53
2023/04/06 04:00:05;;;;;;;6.30;4.23;;;;;;;;;;5007481;28;20179;-52
2023/04/06 04:02:31;;;;;;;4.33;3.93;;;;;;;;;;5008434;28;20722;-52
2023/04/06 04:04:57;;;;;;;5.77;4.83;;;;;;;;;;5005657;28;20249;-54
2023/04/06 04:07:23;;;;;;;6.53;4.97;;;;;;;;;;5007465;28;20190;-53
2023/04/06 04:09:49;;;;;;;5.17;4.13;;;;;;;;;;5006786;28;20273;-52
2023/04/06 04:12:16;;;;;;;5.77;4.57;;;;;;;;;;5006599;28;20311;-52
2023/04/06 04:14:43;;;;;;;5.10;4.17;;;;;;;;;;5007660;28;20238;-53
2023/04/06 04:17:09;;;;;;;4.87;4.23;;;;;;;;;;5008214;28;20170;-52
2023/04/06 04:19:36;;;;;;;5.40;4.20;;;;;;;;;;5005027;28;20182;-53
2023/04/06 04:22:04;;;;;;;8.00;4.47;;;;;;;;;;5006788;28;20589;-53
2023/04/06 04:24:31;;;;;;;5.60;4.80;;;;;;;;;;5007434;28;20224;-52
2023/04/06 04:26:57;;;;;;;5.77;4.73;;;;;;;;;;5007588;28;20244;-52
2023/04/06 04:29:23;;;;;;;6.03;5.50;;;;;;;;;;5006353;28;20809;-53
2023/04/06 04:31:50;;;;;;;7.37;4.90;;;;;;;;;;5009516;28;20637;-52
2023/04/06 04:34:16;;;;;;;5.83;5.10;;;;;;;;;;5005435;28;20748;-53
2023/04/06 04:36:42;;;;;;;6.50;4.60;;;;;;;;;;5008378;28;20186;-53
2023/04/06 04:39:08;;;;;;;6.13;5.37;;;;;;;;;;5004442;28;20663;-53
2023/04/06 04:41:35;;;;;;;6.23;4.90;;;;;;;;;;5007393;28;20229;-53
2023/04/06 04:44:01;;;;;;;6.73;4.67;;;;;;;;;;5003588;28;20577;-52
2023/04/06 04:46:27;;;;;;;5.90;4.50;;;;;;;;;;5007221;28;20183;-53
2023/04/06 04:48:53;;;;;;;7.10;4.50;;;;;;;;;;5006073;28;20634;-52
2023/04/06 04:51:22;;;;;;;6.17;4.77;;;;;;;;;;5006765;28;20689;-52
2023/04/06 04:53:48;;;;;;;5.70;4.43;;;;;;;;;;5005507;28;20555;-52
2023/04/06 04:56:14;;;;;;;5.43;4.50;;;;;;;;;;5005804;28;20210;-52
2023/04/06 04:58:40;;;;;;;6.60;5.00;;;;;;;;;;5007253;28;20328;-52
2023/04/06 05:01:06;;;;;;;5.97;4.53;;;;;;;;;;5005780;28;20185;-53
2023/04/06 05:03:33;;;;;;;5.17;4.47;;;;;;;;;;5006860;28;20206;-53
2023/04/06 05:05:59;;;;;;;5.43;4.90;;;;;;;;;;5005983;28;20178;-52
2023/04/06 05:08:25;;;;;;;5.27;4.13;;;;;;;;;;5005664;28;20178;-52
2023/04/06 05:10:51;;;;;;;6.03;4.83;;;;;;;;;;5006200;28;20182;-53
2023/04/06 05:13:17;;;;;;;5.87;4.80;;;;;;;;;;5005429;28;20191;-52
2023/04/06 05:15:43;;;;;;;6.63;5.07;;;;;;;;;;5006274;28;20251;-52
2023/04/06 05:18:10;;;;;;;6.40;4.33;;;;;;;;;;5005972;28;20248;-53
2023/04/06 05:20:37;;;;;;;6.30;4.93;;;;;;;;;;5007232;28;20282;-52
2023/04/06 05:23:03;;;;;;;5.67;4.87;;;;;;;;;;5005588;28;20182;-54
2023/04/06 05:25:29;;;;;;;5.97;4.77;;;;;;;;;;5004872;28;20181;-53
2023/04/06 05:27:55;;;;;;;4.63;4.10;;;;;;;;;;5005384;28;20185;-54
2023/04/06 05:30:21;;;;;;;5.50;4.87;;;;;;;;;;5006059;28;20661;-54
2023/04/06 05:32:48;;;;;;;5.37;4.70;;;;;;;;;;5004387;28;20182;-53
2023/04/06 05:35:14;;;;;;;5.77;4.83;;;;;;;;;;5004573;28;20210;-53
2023/04/06 05:37:40;;;;;;;7.63;4.50;;;;;;;;;;5006189;28;20179;-53
2023/04/06 05:40:06;;;;;;;5.40;4.57;;;;;;;;;;5004934;28;20610;-53
2023/04/06 05:42:42;;;;;;;6.20;5.07;;;;;;;;;;5006939;28;20190;-52
2023/04/06 05:45:10;;;;;;;6.03;4.60;;;;;;;;;;5004203;28;20189;-53
2023/04/06 05:47:37;;;;;;;5.83;5.13;;;;;;;;;;5006461;28;20721;-53
2023/04/06 05:50:03;;;;;;;7.00;5.00;;;;;;;;;;5003208;28;20190;-53
2023/04/06 05:52:29;;;;;;;5.37;4.60;;;;;;;;;;5006278;28;20301;-53
2023/04/06 05:54:55;;;;;;;5.63;4.40;;;;;;;;;;5005512;28;20704;-54
2023/04/06 05:57:21;;;;;;;5.50;4.67;;;;;;;;;;5004181;28;20197;-53
2023/04/06 05:59:48;;;;;;;5.80;4.50;;;;;;;;;;5004892;28;20238;-53
2023/04/06 06:02:14;;;;;;;7.13;4.67;;;;;;;;;;5004968;28;20179;-53
2023/04/06 06:04:40;;;;;;;6.80;4.90;;;;;;;;;;5004380;28;20548;-53
2023/04/06 06:07:06;;;;;;;8.73;4.97;;;;;;;;;;5004007;28;20187;-53
2023/04/06 06:09:32;;;;;;;5.67;4.80;;;;;;;;;;5000812;28;20234;-53
2023/04/06 06:11:58;;;;;;;4.90;4.30;;;;;;;;;;5001297;28;20206;-53
2023/04/06 06:14:24;;;;;;;5.87;4.50;;;;;;;;;;5003581;28;20174;-53
2023/04/06 06:16:50;;;;;;;5.83;4.13;;;;;;;;;;5006147;28;20254;-53
2023/04/06 06:19:19;;;;;;;6.13;4.57;;;;;;;;;;5005068;28;20187;-54
2023/04/06 06:21:45;;;;;;;6.60;4.70;;;;;;;;;;5006487;28;20579;-53
2023/04/06 06:24:11;;;;;;;5.83;4.40;;;;;;;;;;4998358;28;20204;-54
2023/04/06 06:26:39;;;;;;;7.50;4.70;;;;;;;;;;5005724;28;20237;-53
2023/04/06 06:29:05;;;;;;;5.77;5.17;;;;;;;;;;5004940;28;20596;-53
2023/04/06 06:31:31;;;;;;;5.40;4.53;;;;;;;;;;5005305;28;20182;-53
2023/04/06 06:33:57;;;;;;;4.57;3.93;;;;;;;;;;5004548;28;20240;-54
2023/04/06 06:36:25;;;;;;;4.83;4.33;;;;;;;;;;5003089;28;20341;-53
2023/04/06 06:38:51;;;;;;;4.87;4.23;;;;;;;;;;5003250;28;20178;-53
2023/04/06 06:41:17;;;;;;;6.27;4.23;;;;;;;;;;5002293;28;20244;-53
2023/04/06 06:43:44;;;;;;;5.70;4.50;;;;;;;;;;5005447;28;20174;-53
2023/04/06 06:46:10;;;;;;;4.50;3.97;;;;;;;;;;5003546;28;20244;-54
2023/04/06 06:48:36;;;;;;;4.90;4.40;;;;;;;;;;5004395;28;20642;-53
2023/04/06 06:51:02;;;;;;;5.63;4.70;;;;;;;;;;5000724;28;20256;-53
2023/04/06 06:53:28;;;;;;;8.20;4.23;;;;;;;;;;5001878;28;20547;-53
2023/04/06 06:55:55;;;;;;;4.40;4.00;;;;;;;;;;5000249;28;20697;-53
2023/04/06 06:58:22;;;;;;;4.83;4.40;;;;;;;;;;5001186;28;20592;-53
2023/04/06 07:00:48;;;;;;;6.37;4.47;;;;;;;;;;5002956;28;20765;-54
2023/04/06 07:03:14;;;;;;;4.53;4.07;;;;;;;;;;5003618;28;20530;-53
2023/04/06 07:05:49;;;;;;;6.27;4.60;;;;;;;;;;5004412;28;20178;-52
2023/04/06 07:08:15;;;;;;;8.37;4.87;;;;;;;;;;5005773;28;20186;-51
2023/04/06 07:10:42;;;;;;;6.97;5.10;;;;;;;;;;5004026;28;20190;-53
2023/04/06 07:13:08;;;;;;;6.83;5.57;;;;;;;;;;5001496;28;20210;-52
2023/04/06 07:15:34;;;;;;;7.77;5.30;;;;;;;;;;5004695;28;20206;-51
2023/04/06 07:18:00;;;;;;;7.13;4.60;;;;;;;;;;5002359;28;20599;-52
2023/04/06 07:20:27;;;;;;;5.77;4.73;;;;;;;;;;5000837;28;20183;-53
2023/04/06 07:22:54;;;;;;;7.00;5.13;;;;;;;;;;4998488;28;20209;-52
2023/04/06 07:25:20;;;;;;;7.63;5.03;;;;;;;;;;4999922;28;20192;-52
2023/04/06 07:27:47;;;;;;;9.00;5.43;;;;;;;;;;5004654;28;20186;-53
2023/04/06 07:30:14;;;;;;;7.93;5.13;;;;;;;;;;5001385;28;20728;-52
2023/04/06 07:32:40;;;;;;;8.73;5.20;;;;;;;;;;5001897;28;20178;-53
2023/04/06 07:35:06;;;;;;;5.67;4.93;;;;;;;;;;5005400;28;20198;-53
2023/04/06 07:37:32;;;;;;;5.57;4.40;;;;;;;;;;5005931;28;20300;-52
2023/04/06 07:39:58;;;;;;;6.37;4.53;;;;;;;;;;5009021;28;20574;-51
2023/04/06 07:42:24;;;;;;;7.27;4.63;;;;;;;;;;5003715;28;20216;-51
2023/04/06 07:44:50;;;;;;;6.67;5.53;;;;;;;;;;5008953;28;20547;-51
2023/04/06 07:47:16;;;;;;;6.37;4.83;;;;;;;;;;5005857;28;20875;-52
2023/04/06 07:49:42;;;;;;;6.20;4.73;;;;;;;;;;5006117;28;20194;-52
2023/04/06 07:52:08;;;;;;;10.47;4.50;;;;;;;;;;5007507;28;20280;-52
2023/04/06 07:54:34;;;;;;;6.60;4.87;;;;;;;;;;5006653;28;20721;-51
2023/04/06 07:57:00;;;;;;;8.30;5.13;;;;;;;;;;5005297;28;20634;-52
2023/04/06 07:59:27;;;;;;;6.00;4.87;;;;;;;;;;5006466;28;20661;-51
2023/04/06 08:01:53;;;;;;;9.73;4.47;;;;;;;;;;5013160;28;20174;-52
2023/04/06 08:04:19;;;;;;;7.13;5.70;;;;;;;;;;5008295;28;20178;-51
2023/04/06 08:06:45;;;;;;;6.97;5.53;;;;;;;;;;5006936;28;20198;-51
2023/04/06 08:09:11;;;;;;;8.23;5.20;;;;;;;;;;5005574;28;20182;-51
2023/04/06 08:11:37;;;;;;;6.87;5.70;;;;;;;;;;5006895;28;20202;-52
2023/04/06 08:14:03;;;;;;;6.60;5.30;;;;;;;;;;5005217;28;20694;-52
2023/04/06 08:16:30;;;;;;;5.83;5.00;;;;;;;;;;5009194;28;20695;-51
2023/04/06 08:18:56;;;;;;;6.57;5.00;;;;;;;;;;5014369;28;20736;-52
2023/04/06 08:21:22;;;;;;;6.50;5.27;;;;;;;;;;5007283;28;20226;-52
2023/04/06 08:23:48;;;;;;;7.70;5.27;;;;;;;;;;5003288;28;20261;-52
2023/04/06 08:26:14;;;;;;;6.87;5.10;;;;;;;;;;5005904;28;20182;-51
2023/04/06 08:28:40;;;;;;;7.30;5.73;;;;;;;;;;5008844;28;20191;-52
2023/04/06 08:31:06;;;;;;;7.93;5.40;;;;;;;;;;5009033;28;20179;-52
2023/04/06 08:33:38;;;;;;;6.63;4.87;;;;;;;;;;4999788;28;20625;-52
2023/04/06 08:36:08;;;;;;;6.40;5.23;;;;;;;;;;5004858;28;20202;-52
2023/04/06 08:38:35;;;;;;;9.07;5.10;;;;;;;;;;5002236;28;20666;-52
2023/04/06 08:41:06;;;;;;;7.40;4.70;;;;;;;;;;5004868;28;20603;-52
2023/04/06 08:43:33;;;;;;;4.87;3.87;;;;;;;;;;5001636;28;20171;-52
2023/04/06 08:46:00;;;;;;;8.13;4.80;;;;;;;;;;5003561;28;20198;-52
2023/04/06 08:48:26;;;;;;;6.93;5.57;;;;;;;;;;5005926;28;20657;-51
2023/04/06 08:50:52;;;;;;;7.73;5.27;;;;;;;;;;5011515;28;20185;-52
2023/04/06 08:53:19;;;;;;;7.00;5.27;;;;;;;;;;5003673;28;20199;-52
2023/04/06 08:55:46;;;;;;;6.00;4.47;;;;;;;;;;4996750;28;20678;-51
2023/04/06 08:58:12;;;;;;;7.70;5.70;;;;;;;;;;4999314;28;20285;-52
2023/04/06 09:00:39;;;;;;;6.90;4.47;;;;;;;;;;5002561;28;20228;-52
2023/04/06 09:03:06;;;;;;;6.77;4.50;;;;;;;;;;5001245;28;20601;-52
2023/04/06 09:05:32;;;;;;;4.83;4.33;;;;;;;;;;5009700;28;20647;-51
2023/04/06 09:07:58;;;;;;;5.47;4.03;;;;;;;;;;5001570;28;20278;-51
2023/04/06 09:10:25;;;;;;;5.50;4.50;;;;;;;;;;5001940;28;20539;-52
2023/04/06 09:12:51;;;;;;;7.67;5.70;;;;;;;;;;5011187;28;20690;-52
2023/04/06 09:15:19;;;;;;;5.17;4.27;;;;;;;;;;5007013;28;20194;-51
2023/04/06 09:17:46;;;;;;;5.70;5.00;;;;;;;;;;5015346;28;20931;-52
2023/04/06 09:20:12;;;;;;;5.50;4.87;;;;;;;;;;5013019;28;20174;-50
2023/04/06 09:22:38;;;;;;;6.40;5.07;;;;;;;;;;5005652;28;20242;-51
2023/04/06 09:25:05;;;;;;;7.73;4.77;;;;;;;;;;5007414;28;20201;-51
2023/04/06 09:27:35;;;;;;;6.57;5.40;;;;;;;;;;5006078;28;20240;-51
2023/04/06 09:30:09;;;;;;;7.00;5.60;;;;;;;;;;5013559;28;20185;-51
2023/04/06 09:32:52;;;;;;;5.83;4.23;;;;;;;;;;5006486;28;20182;-51
2023/04/06 09:35:22;;;;;;;6.93;5.37;;;;;;;;;;5008262;28;20289;-51
2023/04/06 09:37:51;;;;;;;6.93;4.93;;;;;;;;;;5007055;28;20210;-52
2023/04/06 09:40:18;;;;;;;5.90;5.07;;;;;;;;;;5002246;28;20174;-51
2023/04/06 09:42:48;;;;;;;10.47;6.70;;;;;;;;;;5005795;28;20183;-53
2023/04/06 09:45:15;;;;;;;9.67;5.50;;;;;;;;;;5008207;28;20195;-52
2023/04/06 09:47:43;;;;;;;8.57;6.83;;;;;;;;;;5020758;28;20604;-52
2023/04/06 09:50:11;;;;;;;8.90;5.03;;;;;;;;;;5005746;28;20190;-51
2023/04/06 09:52:50;;;;;;;5.67;5.10;;;;;;;;;;5007992;28;20207;-52
2023/04/06 09:55:35;;;;;;;7.53;6.20;;;;;;;;;;5002892;28;21482;-52
2023/04/06 09:58:06;;;;;;;8.07;6.10;;;;;;;;;;5003283;28;20697;-52
2023/04/06 10:00:33;;;;;;;9.97;6.60;;;;;;;;;;5003127;28;20426;-52
2023/04/06 10:03:07;;;;;;;11.80;7.07;;;;;;;;;;5004194;28;20178;-52
2023/04/06 10:05:54;;;;;;;8.63;5.53;;;;;;;;;;5000179;28;20177;-52
2023/04/06 10:08:23;;;;;;;6.30;5.20;;;;;;;;;;5003383;28;20182;-52
2023/04/06 10:10:49;;;;;;;7.17;5.30;;;;;;;;;;5006999;28;20188;-52
2023/04/06 10:13:15;;;;;;;8.77;6.03;;;;;;;;;;5009253;28;21032;-52
2023/04/06 10:15:42;;;;;;;8.43;5.90;;;;;;;;;;5002516;28;20216;-52
2023/04/06 10:18:08;;;;;;;8.57;5.77;;;;;;;;;;5002361;28;20209;-52
2023/04/06 10:20:34;;;;;;;9.60;5.73;;;;;;;;;;5003559;28;20191;-51
2023/04/06 10:23:15;;;;;;;12.23;7.63;;;;;;;;;;5001155;28;20844;-51
2023/04/06 10:25:52;;;;;;;10.80;6.63;;;;;;;;;;5005507;28;20194;-53
2023/04/06 10:28:20;;;;;;;9.97;6.10;;;;;;;;;;4997675;28;20190;-51
2023/04/06 10:30:46;;;;;;;8.50;5.87;;;;;;;;;;5001723;28;20721;-51
2023/04/06 10:33:15;;;;;;;7.83;6.10;;;;;;;;;;5001551;28;20201;-51
2023/04/06 10:35:41;;;;;;;10.13;7.10;;;;;;;;;;5004732;28;21060;-52
2023/04/06 10:38:08;;;;;;;14.63;7.57;;;;;;;;;;5005626;28;20547;-51
2023/04/06 10:40:38;;;;;;;9.90;5.80;;;;;;;;;;4998621;28;20582;-52
2023/04/06 10:43:10;;;;;;;8.73;6.43;;;;;;;;;;5001621;28;20567;-52
2023/04/06 10:45:37;;;;;;;9.00;6.27;;;;;;;;;;5001990;28;20270;-52
2023/04/06 10:48:13;;;;;;;9.13;6.00;;;;;;;;;;4996320;28;20653;-52
2023/04/06 10:50:40;;;;;;;9.50;6.43;;;;;;;;;;5005471;28;20473;-52
2023/04/06 10:53:06;;;;;;;10.43;6.70;;;;;;;;;;5005880;28;20178;-52
2023/04/06 10:55:32;;;;;;;7.70;5.57;;;;;;;;;;5004481;28;20716;-51
2023/04/06 10:57:58;;;;;;;8.73;6.67;;;;;;;;;;5004300;28;20177;-51
2023/04/06 11:00:25;;;;;;;8.53;6.40;;;;;;;;;;5008281;28;20174;-52
2023/04/06 11:02:51;;;;;;;8.63;7.30;;;;;;;;;;5017542;28;20181;-52
2023/04/06 11:05:17;;;;;;;8.27;6.60;;;;;;;;;;5017331;28;20675;-51
2023/04/06 11:07:45;;;;;;;8.73;6.20;;;;;;;;;;5014189;28;20658;-51
2023/04/06 11:10:11;;;;;;;8.80;6.17;;;;;;;;;;5004695;28;20786;-52
2023/04/06 11:12:37;;;;;;;9.73;7.27;;;;;;;;;;5009033;28;20225;-51
2023/04/06 11:15:04;;;;;;;8.83;6.73;;;;;;;;;;5012344;28;20607;-52
2023/04/06 11:17:35;;;;;;;11.60;7.17;;;;;;;;;;5013518;28;20803;-52
2023/04/06 11:20:02;;;;;;;8.83;6.40;;;;;;;;;;5017701;28;20235;-51
2023/04/06 11:22:29;;;;;;;8.03;6.30;;;;;;;;;;5012784;28;20209;-51
2023/04/06 11:25:08;;;;;;;10.47;7.13;;;;;;;;;;5022397;28;20268;-51
2023/04/06 11:27:35;;;;;;;10.53;7.27;;;;;;;;;;4999907;28;20179;-51
2023/04/06 11:30:01;;;;;;;10.43;6.83;;;;;;;;;;5006439;28;20182;-52
2023/04/06 11:32:28;;;;;;;11.37;7.73;;;;;;;;;;5009650;28;20189;-52
2023/04/06 11:34:54;;;;;;;11.93;7.57;;;;;;;;;;5006995;28;20198;-51
2023/04/06 11:37:20;;;;;;;12.57;7.97;;;;;;;;;;5013988;28;20209;-52
2023/04/06 11:39:50;;;;;;;10.00;7.53;;;;;;;;;;5019279;28;20208;-51
2023/04/06 11:42:27;;;;;;;12.30;7.33;;;;;;;;;;5007401;28;20189;-52
2023/04/06 11:44:57;;;;;;;10.03;7.50;;;;;;;;;;5012947;28;20177;-52
2023/04/06 11:47:38;;;;;;;10.03;8.17;;;;;;;;;;5005212;28;20945;-52
2023/04/06 11:50:08;;;;;;;9.87;7.20;;;;;;;;;;5004937;28;20656;-52
2023/04/06 11:52:35;;;;;;;12.53;7.90;;;;;;;;;;5010477;28;20186;-52
2023/04/06 11:55:10;;;;;;;9.70;7.77;;;;;;;;;;5006722;28;20202;-53
2023/04/06 11:57:36;;;;;;;12.10;8.13;;;;;;;;;;5007379;28;20182;-53
2023/04/06 12:00:02;;;;;;;11.67;7.33;;;;;;;;;;5009376;28;20186;-52
2023/04/06 12:02:28;;;;;;;10.33;7.63;;;;;;;;;;5010059;28;20183;-52
2023/04/06 12:04:55;;;;;;;11.90;7.10;;;;;;;;;;5009809;28;20243;-52
2023/04/06 12:07:21;;;;;;;9.67;7.30;;;;;;;;;;5007540;28;20171;-52
2023/04/06 12:09:47;;;;;;;11.70;8.00;;;;;;;;;;5007114;28;20273;-52
2023/04/06 12:12:13;;;;;;;9.43;7.57;;;;;;;;;;5008164;28;20225;-52
2023/04/06 12:14:42;;;;;;;10.37;7.17;;;;;;;;;;5007726;28;20670;-52
2023/04/06 12:17:08;;;;;;;11.73;8.90;;;;;;;;;;5007054;28;20174;-52
2023/04/06 12:19:34;;;;;;;9.83;7.13;;;;;;;;;;5015989;28;20175;-52
2023/04/06 12:22:00;;;;;;;10.07;7.70;;;;;;;;;;5006306;28;20222;-52
2023/04/06 12:24:26;;;;;;;10.33;7.27;;;;;;;;;;5003017;28;20630;-52
2023/04/06 12:26:53;;;;;;;11.10;7.70;;;;;;;;;;5006737;28;20194;-52
2023/04/06 12:29:19;;;;;;;8.73;6.93;;;;;;;;;;5005549;28;20187;-52
2023/04/06 12:31:46;;;;;;;8.27;7.30;;;;;;;;;;5000884;28;20577;-52
2023/04/06 12:34:12;;;;;;;9.80;7.20;;;;;;;;;;5005064;28;20205;-52
2023/04/06 12:36:38;;;;;;;12.47;8.67;;;;;;;;;;5003413;28;20199;-52
2023/04/06 12:39:05;;;;;;;12.43;9.10;;;;;;;;;;5004530;28;20233;-52
2023/04/06 12:41:31;;;;;;;11.47;7.97;;;;;;;;;;5007151;28;20202;-52
2023/04/06 12:43:59;;;;;;;10.23;7.70;;;;;;;;;;5008076;28;20183;-52
2023/04/06 12:46:25;;;;;;;9.70;7.10;;;;;;;;;;5002034;28;20172;-52
2023/04/06 12:48:55;;;;;;;12.00;7.90;;;;;;;;;;5007725;28;20718;-52
2023/04/06 12:51:21;;;;;;;12.13;8.83;;;;;;;;;;5004989;28;20194;-52
2023/04/06 12:53:48;;;;;;;12.30;9.40;;;;;;;;;;5007462;28;20751;-52
2023/04/06 12:56:17;;;;;;;10.57;8.37;;;;;;;;;;5007446;28;20693;-52
2023/04/06 12:58:43;;;;;;;11.80;8.83;;;;;;;;;;5005488;28;20189;-52
2023/04/06 13:01:09;;;;;;;13.10;8.53;;;;;;;;;;5004216;28;20536;-52
2023/04/06 13:03:36;;;;;;;10.97;8.30;;;;;;;;;;5000343;28;20198;-52
2023/04/06 13:06:02;;;;;;;8.73;7.67;;;;;;;;;;5005637;28;20530;-53
2023/04/06 13:08:29;;;;;;;10.13;7.23;;;;;;;;;;4999561;28;20269;-52
2023/04/06 13:10:56;;;;;;;7.23;6.50;;;;;;;;;;5006939;28;20202;-51
2023/04/06 13:13:26;;;;;;;8.83;6.70;;;;;;;;;;5006621;28;20175;-51
2023/04/06 13:15:53;;;;;;;9.63;7.07;;;;;;;;;;5007313;28;20305;-51
2023/04/06 13:18:20;;;;;;;7.43;6.33;;;;;;;;;;5005448;28;20189;-51
2023/04/06 13:20:47;;;;;;;7.73;6.33;;;;;;;;;;5005489;28;20221;-51
2023/04/06 13:23:13;;;;;;;9.23;6.20;;;;;;;;;;5018289;28;20662;-50
2023/04/06 13:25:40;;;;;;;8.37;5.63;;;;;;;;;;5001256;28;20709;-50
2023/04/06 13:28:06;;;;;;;6.60;5.43;;;;;;;;;;5004561;28;20191;-51
2023/04/06 13:30:32;;;;;;;8.37;5.60;;;;;;;;;;5003251;28;20206;-51
2023/04/06 13:32:58;;;;;;;7.60;5.47;;;;;;;;;;5003134;28;20273;-51
2023/04/06 13:35:25;;;;;;;7.57;5.60;;;;;;;;;;5003504;28;20210;-51
2023/04/06 13:37:52;;;;;;;6.43;5.33;;;;;;;;;;5004916;28;20264;-52
2023/04/06 13:40:18;;;;;;;6.53;5.13;;;;;;;;;;5001234;28;20272;-51
2023/04/06 13:42:45;;;;;;;6.10;5.27;;;;;;;;;;5006259;28;20186;-53
2023/04/06 13:45:12;;;;;;;7.20;5.57;;;;;;;;;;5005534;28;20183;-52
2023/04/06 13:47:38;;;;;;;9.10;5.00;;;;;;;;;;5001022;28;20204;-52
2023/04/06 13:50:04;;;;;;;10.00;5.23;;;;;;;;;;4997526;28;20653;-52
2023/04/06 13:52:30;;;;;;;5.90;5.03;;;;;;;;;;4998984;28;20190;-51
2023/04/06 13:55:06;;;;;;;5.23;4.70;;;;;;;;;;5004221;28;20647;-52
2023/04/06 13:57:32;;;;;;;5.47;4.47;;;;;;;;;;5002584;28;20537;-51
2023/04/06 13:59:58;;;;;;;5.23;4.73;;;;;;;;;;5003159;28;20286;-51
2023/04/06 14:02:26;;;;;;;5.87;5.20;;;;;;;;;;5003239;28;20189;-51
2023/04/06 14:04:54;;;;;;;5.67;4.63;;;;;;;;;;5000576;28;20174;-52
2023/04/06 14:07:21;;;;;;;6.70;5.07;;;;;;;;;;5006579;28;20702;-52
2023/04/06 14:09:48;;;;;;;4.77;4.30;;;;;;;;;;5007519;28;20210;-51
2023/04/06 14:12:14;;;;;;;5.47;4.80;;;;;;;;;;5005092;28;20217;-52
2023/04/06 14:14:40;;;;;;;5.60;4.63;;;;;;;;;;5002646;28;20584;-52
2023/04/06 14:17:06;;;;;;;5.90;4.30;;;;;;;;;;5006352;28;20548;-51
2023/04/06 14:19:33;;;;;;;5.73;5.00;;;;;;;;;;5005106;28;20178;-52
2023/04/06 14:21:59;;;;;;;4.47;4.07;;;;;;;;;;5004263;28;20702;-51
2023/04/06 14:24:26;;;;;;;6.03;4.70;;;;;;;;;;5003617;28;20273;-52
2023/04/06 14:26:52;;;;;;;9.63;4.20;;;;;;;;;;5004498;28;20669;-51
2023/04/06 14:29:18;;;;;;;4.80;4.13;;;;;;;;;;5004389;28;20218;-52
2023/04/06 14:31:46;;;;;;;6.33;4.47;;;;;;;;;;4995142;28;20237;-52
2023/04/06 14:34:12;;;;;;;5.17;4.40;;;;;;;;;;5001545;28;20282;-52
2023/04/06 14:36:38;;;;;;;5.00;4.30;;;;;;;;;;5003354;28;20207;-51
2023/04/06 14:39:04;;;;;;;4.23;3.83;;;;;;;;;;5003337;28;20542;-51